Terminal Aerodrome Forecast
Issued by NWS Corpus Christi, TX

Home | Current Version | Previous Version | Text Only | Print | Product List | Glossary On
Versions: 1 2 3 4 5 6 7 8 9 10 11 12 13 14 15 16
000
FTUS44 KCRP 011100
TAFVCT
TAF
KVCT 011129Z 0112/0212 VRB03KT 4SM BR SCT012 BKN022
      TEMPO 0112/0114 2SM BR BKN012
     FM011500 16009KT P6SM BKN025 BKN080
     FM012000 15014KT P6SM SCT035
     FM020100 15008KT P6SM SCT020
     FM020800 14006KT P6SM BKN012=

USA.gov is the U.S. government's official web portal to all federal, state and local government web resources and services.